sensor_id;sensor_type;location;lat;lon;timestamp;temperature;humidity
7972;DHT22;4031;49.758;6.120;2023-08-30T00:00:18;12.40;99.90
7972;DHT22;4031;49.758;6.120;2023-08-30T00:02:44;12.40;99.90
7972;DHT22;4031;49.758;6.120;2023-08-30T00:05:10;12.40;99.90
7972;DHT22;4031;49.758;6.120;2023-08-30T00:07:36;12.40;99.90
7972;DHT22;4031;49.758;6.120;2023-08-30T00:10:02;12.40;99.90
7972;DHT22;4031;49.758;6.120;2023-08-30T00:12:29;12.50;99.90
7972;DHT22;4031;49.758;6.120;2023-08-30T00:14:55;12.50;99.90
7972;DHT22;4031;49.758;6.120;2023-08-30T00:17:22;12.50;99.90
7972;DHT22;4031;49.758;6.120;2023-08-30T00:19:48;12.50;99.90
7972;DHT22;4031;49.758;6.120;2023-08-30T00:22:14;12.50;99.90
7972;DHT22;4031;49.758;6.120;2023-08-30T00:24:40;12.50;99.90
7972;DHT22;4031;49.758;6.120;2023-08-30T00:27:06;12.40;99.90
7972;DHT22;4031;49.758;6.120;2023-08-30T00:29:31;12.40;99.90
7972;DHT22;4031;49.758;6.120;2023-08-30T00:31:57;12.30;99.90
7972;DHT22;4031;49.758;6.120;2023-08-30T00:34:23;12.20;99.90
7972;DHT22;4031;49.758;6.120;2023-08-30T00:36:49;12.00;99.90
7972;DHT22;4031;49.758;6.120;2023-08-30T00:39:14;11.90;99.90
7972;DHT22;4031;49.758;6.120;2023-08-30T00:41:40;11.80;99.90
7972;DHT22;4031;49.758;6.120;2023-08-30T00:44:06;11.70;99.90
7972;DHT22;4031;49.758;6.120;2023-08-30T00:46:35;11.60;99.90
7972;DHT22;4031;49.758;6.120;2023-08-30T00:49:01;11.40;99.90
7972;DHT22;4031;49.758;6.120;2023-08-30T00:51:27;11.30;99.90
7972;DHT22;4031;49.758;6.120;2023-08-30T00:53:58;11.20;99.90
7972;DHT22;4031;49.758;6.120;2023-08-30T00:56:28;11.20;99.90
7972;DHT22;4031;49.758;6.120;2023-08-30T00:58:54;11.10;99.90
7972;DHT22;4031;49.758;6.120;2023-08-30T01:01:21;11.00;99.90
7972;DHT22;4031;49.758;6.120;2023-08-30T01:03:47;10.80;99.90
7972;DHT22;4031;49.758;6.120;2023-08-30T01:06:12;10.70;99.90
7972;DHT22;4031;49.758;6.120;2023-08-30T01:08:42;10.80;99.90
7972;DHT22;4031;49.758;6.120;2023-08-30T01:14:00;10.70;99.90
7972;DHT22;4031;49.758;6.120;2023-08-30T01:16:28;10.70;99.90
7972;DHT22;4031;49.758;6.120;2023-08-30T01:18:56;10.70;99.90
7972;DHT22;4031;49.758;6.120;2023-08-30T01:21:49;10.60;99.90
7972;DHT22;4031;49.758;6.120;2023-08-30T01:27:38;10.50;99.90
7972;DHT22;4031;49.758;6.120;2023-08-30T01:30:07;10.40;99.90
7972;DHT22;4031;49.758;6.120;2023-08-30T01:32:36;10.40;99.90
7972;DHT22;4031;49.758;6.120;2023-08-30T01:35:04;10.40;99.90
7972;DHT22;4031;49.758;6.120;2023-08-30T01:37:32;10.40;99.90
7972;DHT22;4031;49.758;6.120;2023-08-30T01:39:59;10.30;99.90
7972;DHT22;4031;49.758;6.120;2023-08-30T01:42:25;10.30;99.90
7972;DHT22;4031;49.758;6.120;2023-08-30T01:44:53;10.20;99.90
7972;DHT22;4031;49.758;6.120;2023-08-30T01:47:25;10.10;99.90
7972;DHT22;4031;49.758;6.120;2023-08-30T01:49:53;10.00;99.90
7972;DHT22;4031;49.758;6.120;2023-08-30T01:52:20;9.90;99.90
7972;DHT22;4031;49.758;6.120;2023-08-30T01:54:47;9.90;99.90
7972;DHT22;4031;49.758;6.120;2023-08-30T01:57:13;9.90;99.90
7972;DHT22;4031;49.758;6.120;2023-08-30T01:59:39;9.80;99.90
7972;DHT22;4031;49.758;6.120;2023-08-30T02:02:05;9.80;99.90
7972;DHT22;4031;49.758;6.120;2023-08-30T02:04:30;9.80;99.90
7972;DHT22;4031;49.758;6.120;2023-08-30T02:07:02;9.80;99.90
7972;DHT22;4031;49.758;6.120;2023-08-30T02:09:44;9.70;99.90
7972;DHT22;4031;49.758;6.120;2023-08-30T02:12:17;9.70;99.90
7972;DHT22;4031;49.758;6.120;2023-08-30T02:14:48;9.70;99.90
7972;DHT22;4031;49.758;6.120;2023-08-30T02:17:15;9.70;99.90
7972;DHT22;4031;49.758;6.120;2023-08-30T02:19:43;9.70;99.90
7972;DHT22;4031;49.758;6.120;2023-08-30T02:22:10;9.70;99.90
7972;DHT22;4031;49.758;6.120;2023-08-30T02:24:36;9.60;99.90
7972;DHT22;4031;49.758;6.120;2023-08-30T02:27:01;9.60;99.90
7972;DHT22;4031;49.758;6.120;2023-08-30T02:29:27;9.60;99.90
7972;DHT22;4031;49.758;6.120;2023-08-30T02:31:53;9.60;99.90
7972;DHT22;4031;49.758;6.120;2023-08-30T02:34:19;9.80;99.90
7972;DHT22;4031;49.758;6.120;2023-08-30T02:36:44;9.90;99.90
7972;DHT22;4031;49.758;6.120;2023-08-30T02:39:14;10.00;99.90
7972;DHT22;4031;49.758;6.120;2023-08-30T02:41:39;10.10;99.90
7972;DHT22;4031;49.758;6.120;2023-08-30T02:44:07;10.20;99.90
7972;DHT22;4031;49.758;6.120;2023-08-30T02:46:33;10.30;99.90
7972;DHT22;4031;49.758;6.120;2023-08-30T02:48:59;10.30;99.90
7972;DHT22;4031;49.758;6.120;2023-08-30T02:51:25;10.40;99.90
7972;DHT22;4031;49.758;6.120;2023-08-30T02:53:50;10.50;99.90
7972;DHT22;4031;49.758;6.120;2023-08-30T02:56:16;10.60;99.90
7972;DHT22;4031;49.758;6.120;2023-08-30T02:58:42;10.70;99.90
7972;DHT22;4031;49.758;6.120;2023-08-30T03:01:08;10.70;99.90
7972;DHT22;4031;49.758;6.120;2023-08-30T03:03:33;10.70;99.90
7972;DHT22;4031;49.758;6.120;2023-08-30T03:06:00;10.80;99.90
7972;DHT22;4031;49.758;6.120;2023-08-30T03:08:26;10.80;99.90
7972;DHT22;4031;49.758;6.120;2023-08-30T03:10:52;10.80;99.90
7972;DHT22;4031;49.758;6.120;2023-08-30T03:13:18;10.80;99.90
7972;DHT22;4031;49.758;6.120;2023-08-30T03:15:44;10.70;99.90
7972;DHT22;4031;49.758;6.120;2023-08-30T03:18:10;10.70;99.90
7972;DHT22;4031;49.758;6.120;2023-08-30T03:20:35;10.70;99.90
7972;DHT22;4031;49.758;6.120;2023-08-30T03:23:01;10.60;99.90
7972;DHT22;4031;49.758;6.120;2023-08-30T03:25:30;10.60;99.90
7972;DHT22;4031;49.758;6.120;2023-08-30T03:27:56;10.60;99.90
7972;DHT22;4031;49.758;6.120;2023-08-30T03:30:21;10.60;99.90
7972;DHT22;4031;49.758;6.120;2023-08-30T03:32:47;10.60;99.90
7972;DHT22;4031;49.758;6.120;2023-08-30T03:35:13;10.60;99.90
7972;DHT22;4031;49.758;6.120;2023-08-30T03:37:41;10.60;99.90
7972;DHT22;4031;49.758;6.120;2023-08-30T03:40:07;10.60;99.90
7972;DHT22;4031;49.758;6.120;2023-08-30T03:42:34;10.70;99.90
7972;DHT22;4031;49.758;6.120;2023-08-30T03:45:00;10.70;99.90
7972;DHT22;4031;49.758;6.120;2023-08-30T03:47:26;10.70;99.90
7972;DHT22;4031;49.758;6.120;2023-08-30T03:49:52;10.60;99.90
7972;DHT22;4031;49.758;6.120;2023-08-30T03:52:17;10.60;99.90
7972;DHT22;4031;49.758;6.120;2023-08-30T03:54:43;10.50;99.90
7972;DHT22;4031;49.758;6.120;2023-08-30T03:57:09;10.60;99.90
7972;DHT22;4031;49.758;6.120;2023-08-30T03:59:35;10.60;99.90
7972;DHT22;4031;49.758;6.120;2023-08-30T04:02:00;10.60;99.90
7972;DHT22;4031;49.758;6.120;2023-08-30T04:04:26;10.60;99.90
7972;DHT22;4031;49.758;6.120;2023-08-30T04:06:52;10.60;99.90
7972;DHT22;4031;49.758;6.120;2023-08-30T04:09:17;10.60;99.90
7972;DHT22;4031;49.758;6.120;2023-08-30T04:11:44;10.60;99.90
7972;DHT22;4031;49.758;6.120;2023-08-30T04:14:09;10.60;99.90
7972;DHT22;4031;49.758;6.120;2023-08-30T04:16:35;10.70;99.90
7972;DHT22;4031;49.758;6.120;2023-08-30T04:19:01;10.70;99.90
7972;DHT22;4031;49.758;6.120;2023-08-30T04:21:26;10.60;99.90
7972;DHT22;4031;49.758;6.120;2023-08-30T04:23:52;10.60;99.90
7972;DHT22;4031;49.758;6.120;2023-08-30T04:26:18;10.60;99.90
7972;DHT22;4031;49.758;6.120;2023-08-30T04:28:43;10.60;99.90
7972;DHT22;4031;49.758;6.120;2023-08-30T04:31:09;10.60;99.90
7972;DHT22;4031;49.758;6.120;2023-08-30T04:33:35;10.60;99.90
7972;DHT22;4031;49.758;6.120;2023-08-30T04:36:00;10.60;99.90
7972;DHT22;4031;49.758;6.120;2023-08-30T04:38:29;10.50;99.90
7972;DHT22;4031;49.758;6.120;2023-08-30T04:40:58;10.40;99.90
7972;DHT22;4031;49.758;6.120;2023-08-30T04:43:28;10.30;99.90
7972;DHT22;4031;49.758;6.120;2023-08-30T04:45:54;10.20;99.90
7972;DHT22;4031;49.758;6.120;2023-08-30T04:48:19;10.20;99.90
7972;DHT22;4031;49.758;6.120;2023-08-30T04:50:45;10.20;99.90
7972;DHT22;4031;49.758;6.120;2023-08-30T04:53:11;10.30;99.90
7972;DHT22;4031;49.758;6.120;2023-08-30T04:55:36;10.20;99.90
7972;DHT22;4031;49.758;6.120;2023-08-30T04:58:02;10.20;99.90
7972;DHT22;4031;49.758;6.120;2023-08-30T05:00:28;10.20;99.90
7972;DHT22;4031;49.758;6.120;2023-08-30T05:02:54;10.20;99.90
7972;DHT22;4031;49.758;6.120;2023-08-30T05:05:19;10.20;99.90
7972;DHT22;4031;49.758;6.120;2023-08-30T05:07:45;10.30;99.90
7972;DHT22;4031;49.758;6.120;2023-08-30T05:10:11;10.30;99.90
7972;DHT22;4031;49.758;6.120;2023-08-30T05:12:37;10.40;99.90
7972;DHT22;4031;49.758;6.120;2023-08-30T05:15:03;10.40;99.90
7972;DHT22;4031;49.758;6.120;2023-08-30T05:17:29;10.30;99.90
7972;DHT22;4031;49.758;6.120;2023-08-30T05:19:55;10.30;99.90
7972;DHT22;4031;49.758;6.120;2023-08-30T05:22:21;10.30;99.90
7972;DHT22;4031;49.758;6.120;2023-08-30T05:24:47;10.40;99.90
7972;DHT22;4031;49.758;6.120;2023-08-30T05:27:12;10.40;99.90
7972;DHT22;4031;49.758;6.120;2023-08-30T05:29:40;10.40;99.90
7972;DHT22;4031;49.758;6.120;2023-08-30T05:32:06;10.50;99.90
7972;DHT22;4031;49.758;6.120;2023-08-30T05:34:31;10.60;99.90
7972;DHT22;4031;49.758;6.120;2023-08-30T05:36:57;10.70;99.90
7972;DHT22;4031;49.758;6.120;2023-08-30T05:39:23;10.70;99.90
7972;DHT22;4031;49.758;6.120;2023-08-30T05:41:49;10.70;99.90
7972;DHT22;4031;49.758;6.120;2023-08-30T05:44:14;10.70;99.90
7972;DHT22;4031;49.758;6.120;2023-08-30T05:46:40;10.70;99.90
7972;DHT22;4031;49.758;6.120;2023-08-30T05:49:06;10.70;99.90
7972;DHT22;4031;49.758;6.120;2023-08-30T05:51:31;10.80;99.90
7972;DHT22;4031;49.758;6.120;2023-08-30T05:53:57;10.80;99.90
7972;DHT22;4031;49.758;6.120;2023-08-30T05:56:23;10.90;99.90
7972;DHT22;4031;49.758;6.120;2023-08-30T05:58:49;10.90;99.90
7972;DHT22;4031;49.758;6.120;2023-08-30T06:01:18;11.00;99.90
7972;DHT22;4031;49.758;6.120;2023-08-30T06:03:45;11.10;99.90
7972;DHT22;4031;49.758;6.120;2023-08-30T06:06:12;11.10;99.90
7972;DHT22;4031;49.758;6.120;2023-08-30T06:08:38;11.10;99.90
7972;DHT22;4031;49.758;6.120;2023-08-30T06:11:04;11.20;99.90
7972;DHT22;4031;49.758;6.120;2023-08-30T06:13:29;11.20;99.90
7972;DHT22;4031;49.758;6.120;2023-08-30T06:15:55;11.20;99.90
7972;DHT22;4031;49.758;6.120;2023-08-30T06:18:21;11.30;99.90
7972;DHT22;4031;49.758;6.120;2023-08-30T06:20:46;11.30;99.90
7972;DHT22;4031;49.758;6.120;2023-08-30T06:23:13;11.40;99.90
7972;DHT22;4031;49.758;6.120;2023-08-30T06:25:40;11.50;99.90
7972;DHT22;4031;49.758;6.120;2023-08-30T06:28:06;11.50;99.90
7972;DHT22;4031;49.758;6.120;2023-08-30T06:30:32;11.60;99.90
7972;DHT22;4031;49.758;6.120;2023-08-30T06:32:58;11.60;99.90
7972;DHT22;4031;49.758;6.120;2023-08-30T06:35:24;11.70;99.90
7972;DHT22;4031;49.758;6.120;2023-08-30T06:37:50;11.80;99.90
7972;DHT22;4031;49.758;6.120;2023-08-30T06:40:15;12.10;99.90
7972;DHT22;4031;49.758;6.120;2023-08-30T06:42:41;12.20;99.90
7972;DHT22;4031;49.758;6.120;2023-08-30T06:45:07;12.40;99.90
7972;DHT22;4031;49.758;6.120;2023-08-30T06:47:33;12.60;99.90
7972;DHT22;4031;49.758;6.120;2023-08-30T06:50:00;12.70;99.90
7972;DHT22;4031;49.758;6.120;2023-08-30T06:52:26;12.70;99.90
7972;DHT22;4031;49.758;6.120;2023-08-30T06:54:52;12.80;99.90
7972;DHT22;4031;49.758;6.120;2023-08-30T06:57:18;12.90;99.90
7972;DHT22;4031;49.758;6.120;2023-08-30T06:59:43;13.10;99.90
7972;DHT22;4031;49.758;6.120;2023-08-30T07:02:09;13.60;99.90
7972;DHT22;4031;49.758;6.120;2023-08-30T07:04:35;14.10;99.90
7972;DHT22;4031;49.758;6.120;2023-08-30T07:07:00;14.50;99.90
7972;DHT22;4031;49.758;6.120;2023-08-30T07:09:27;14.60;99.90
7972;DHT22;4031;49.758;6.120;2023-08-30T07:11:58;14.70;99.90
7972;DHT22;4031;49.758;6.120;2023-08-30T07:14:23;14.80;99.90
7972;DHT22;4031;49.758;6.120;2023-08-30T07:16:49;14.60;99.90
7972;DHT22;4031;49.758;6.120;2023-08-30T07:19:16;14.40;99.90
7972;DHT22;4031;49.758;6.120;2023-08-30T07:21:42;14.10;99.90
7972;DHT22;4031;49.758;6.120;2023-08-30T07:24:08;14.00;99.90
7972;DHT22;4031;49.758;6.120;2023-08-30T07:26:34;14.50;99.90
7972;DHT22;4031;49.758;6.120;2023-08-30T07:29:01;15.30;99.90
7972;DHT22;4031;49.758;6.120;2023-08-30T07:31:27;16.20;99.90
7972;DHT22;4031;49.758;6.120;2023-08-30T07:33:52;17.10;99.90
7972;DHT22;4031;49.758;6.120;2023-08-30T07:36:18;17.90;99.90
7972;DHT22;4031;49.758;6.120;2023-08-30T07:38:44;18.60;99.90
7972;DHT22;4031;49.758;6.120;2023-08-30T07:41:10;18.80;99.90
7972;DHT22;4031;49.758;6.120;2023-08-30T07:43:35;19.40;99.90
7972;DHT22;4031;49.758;6.120;2023-08-30T07:46:01;19.70;99.90
7972;DHT22;4031;49.758;6.120;2023-08-30T07:48:27;20.00;99.90
7972;DHT22;4031;49.758;6.120;2023-08-30T07:50:53;20.50;99.90
7972;DHT22;4031;49.758;6.120;2023-08-30T07:53:18;20.60;99.90
7972;DHT22;4031;49.758;6.120;2023-08-30T07:55:48;20.70;99.90
7972;DHT22;4031;49.758;6.120;2023-08-30T07:58:15;20.70;99.90
7972;DHT22;4031;49.758;6.120;2023-08-30T08:00:42;20.90;99.90
7972;DHT22;4031;49.758;6.120;2023-08-30T08:03:08;21.00;99.90
7972;DHT22;4031;49.758;6.120;2023-08-30T08:05:36;21.10;99.90
7972;DHT22;4031;49.758;6.120;2023-08-30T08:08:02;21.20;99.90
7972;DHT22;4031;49.758;6.120;2023-08-30T08:10:34;20.80;99.90
7972;DHT22;4031;49.758;6.120;2023-08-30T08:13:00;20.40;99.90
7972;DHT22;4031;49.758;6.120;2023-08-30T08:15:28;20.40;99.90
7972;DHT22;4031;49.758;6.120;2023-08-30T08:17:56;20.70;99.90
7972;DHT22;4031;49.758;6.120;2023-08-30T08:20:22;21.00;99.90
7972;DHT22;4031;49.758;6.120;2023-08-30T08:22:48;21.60;99.90
7972;DHT22;4031;49.758;6.120;2023-08-30T08:25:13;22.40;99.90
7972;DHT22;4031;49.758;6.120;2023-08-30T08:27:39;23.40;99.90
7972;DHT22;4031;49.758;6.120;2023-08-30T08:30:06;24.40;99.90
7972;DHT22;4031;49.758;6.120;2023-08-30T08:32:32;25.10;99.90
7972;DHT22;4031;49.758;6.120;2023-08-30T08:34:58;25.10;99.90
7972;DHT22;4031;49.758;6.120;2023-08-30T08:37:24;24.60;99.90
7972;DHT22;4031;49.758;6.120;2023-08-30T08:39:50;23.80;99.90
7972;DHT22;4031;49.758;6.120;2023-08-30T08:42:19;23.20;99.90
7972;DHT22;4031;49.758;6.120;2023-08-30T08:44:51;22.80;99.90
7972;DHT22;4031;49.758;6.120;2023-08-30T08:47:19;22.70;99.90
7972;DHT22;4031;49.758;6.120;2023-08-30T08:49:47;23.60;99.90
7972;DHT22;4031;49.758;6.120;2023-08-30T08:52:14;23.90;99.90
7972;DHT22;4031;49.758;6.120;2023-08-30T08:54:40;23.50;99.90
7972;DHT22;4031;49.758;6.120;2023-08-30T08:57:07;22.80;99.90
7972;DHT22;4031;49.758;6.120;2023-08-30T08:59:33;22.30;99.90
7972;DHT22;4031;49.758;6.120;2023-08-30T09:02:00;22.10;99.90
7972;DHT22;4031;49.758;6.120;2023-08-30T09:04:31;22.00;99.90
7972;DHT22;4031;49.758;6.120;2023-08-30T09:07:02;21.70;99.90
7972;DHT22;4031;49.758;6.120;2023-08-30T09:09:28;21.50;99.90
7972;DHT22;4031;49.758;6.120;2023-08-30T09:11:53;21.40;99.90
7972;DHT22;4031;49.758;6.120;2023-08-30T09:14:19;22.20;99.90
7972;DHT22;4031;49.758;6.120;2023-08-30T09:16:56;23.20;99.90
7972;DHT22;4031;49.758;6.120;2023-08-30T09:19:22;23.40;99.90
7972;DHT22;4031;49.758;6.120;2023-08-30T09:21:58;23.00;99.90
7972;DHT22;4031;49.758;6.120;2023-08-30T09:24:25;22.00;99.90
7972;DHT22;4031;49.758;6.120;2023-08-30T09:26:53;21.10;99.90
7972;DHT22;4031;49.758;6.120;2023-08-30T09:29:20;20.30;99.90
7972;DHT22;4031;49.758;6.120;2023-08-30T09:31:51;19.60;99.90
7972;DHT22;4031;49.758;6.120;2023-08-30T09:34:24;19.30;99.90
7972;DHT22;4031;49.758;6.120;2023-08-30T09:36:53;19.60;99.90
7972;DHT22;4031;49.758;6.120;2023-08-30T09:39:20;20.20;99.90
7972;DHT22;4031;49.758;6.120;2023-08-30T09:41:48;21.20;99.90
7972;DHT22;4031;49.758;6.120;2023-08-30T09:44:16;22.30;99.90
7972;DHT22;4031;49.758;6.120;2023-08-30T09:46:45;22.60;99.90
7972;DHT22;4031;49.758;6.120;2023-08-30T09:49:12;22.20;99.90
7972;DHT22;4031;49.758;6.120;2023-08-30T09:51:39;21.50;99.90
7972;DHT22;4031;49.758;6.120;2023-08-30T09:54:14;21.00;99.90
7972;DHT22;4031;49.758;6.120;2023-08-30T09:56:42;20.80;99.90
7972;DHT22;4031;49.758;6.120;2023-08-30T09:59:10;20.70;99.90
7972;DHT22;4031;49.758;6.120;2023-08-30T10:01:37;20.20;99.90
7972;DHT22;4031;49.758;6.120;2023-08-30T10:04:09;19.70;99.90
7972;DHT22;4031;49.758;6.120;2023-08-30T10:06:37;19.30;99.90
7972;DHT22;4031;49.758;6.120;2023-08-30T10:09:05;19.20;99.90
7972;DHT22;4031;49.758;6.120;2023-08-30T10:11:37;19.40;99.90
7972;DHT22;4031;49.758;6.120;2023-08-30T10:14:04;19.40;99.90
7972;DHT22;4031;49.758;6.120;2023-08-30T10:16:45;19.40;99.90
7972;DHT22;4031;49.758;6.120;2023-08-30T10:19:30;20.00;99.90
7972;DHT22;4031;49.758;6.120;2023-08-30T10:24:28;21.20;99.90
7972;DHT22;4031;49.758;6.120;2023-08-30T10:26:56;21.10;99.90
7972;DHT22;4031;49.758;6.120;2023-08-30T10:29:23;21.00;99.90
7972;DHT22;4031;49.758;6.120;2023-08-30T10:31:51;21.00;99.90
7972;DHT22;4031;49.758;6.120;2023-08-30T10:34:17;20.70;99.90
7972;DHT22;4031;49.758;6.120;2023-08-30T10:36:44;20.90;99.90
7972;DHT22;4031;49.758;6.120;2023-08-30T10:39:14;21.30;99.90
7972;DHT22;4031;49.758;6.120;2023-08-30T10:41:56;21.60;99.90
7972;DHT22;4031;49.758;6.120;2023-08-30T10:44:23;21.90;99.90
7972;DHT22;4031;49.758;6.120;2023-08-30T10:46:55;21.60;99.90
7972;DHT22;4031;49.758;6.120;2023-08-30T10:49:21;21.00;99.90
7972;DHT22;4031;49.758;6.120;2023-08-30T10:51:59;20.50;99.90
7972;DHT22;4031;49.758;6.120;2023-08-30T10:54:36;20.40;99.90
7972;DHT22;4031;49.758;6.120;2023-08-30T10:57:04;20.90;99.90
7972;DHT22;4031;49.758;6.120;2023-08-30T10:59:29;20.90;99.90
7972;DHT22;4031;49.758;6.120;2023-08-30T11:01:55;21.20;99.90
7972;DHT22;4031;49.758;6.120;2023-08-30T11:04:22;21.30;99.90
7972;DHT22;4031;49.758;6.120;2023-08-30T11:06:49;21.30;99.90
7972;DHT22;4031;49.758;6.120;2023-08-30T11:09:21;21.40;99.90
7972;DHT22;4031;49.758;6.120;2023-08-30T11:11:49;21.20;99.90
7972;DHT22;4031;49.758;6.120;2023-08-30T11:14:16;20.80;99.90
7972;DHT22;4031;49.758;6.120;2023-08-30T11:16:43;20.30;99.90
7972;DHT22;4031;49.758;6.120;2023-08-30T11:19:10;20.10;99.90
7972;DHT22;4031;49.758;6.120;2023-08-30T11:21:38;19.80;99.90
7972;DHT22;4031;49.758;6.120;2023-08-30T11:24:06;19.60;99.90
7972;DHT22;4031;49.758;6.120;2023-08-30T11:26:32;19.40;99.90
7972;DHT22;4031;49.758;6.120;2023-08-30T11:29:04;19.10;99.90
7972;DHT22;4031;49.758;6.120;2023-08-30T11:31:30;18.90;99.90
7972;DHT22;4031;49.758;6.120;2023-08-30T11:33:57;18.70;99.90
7972;DHT22;4031;49.758;6.120;2023-08-30T11:36:27;18.80;99.90
7972;DHT22;4031;49.758;6.120;2023-08-30T11:38:55;19.10;99.90
7972;DHT22;4031;49.758;6.120;2023-08-30T11:41:21;19.30;99.90
7972;DHT22;4031;49.758;6.120;2023-08-30T11:43:48;19.50;99.90
7972;DHT22;4031;49.758;6.120;2023-08-30T11:46:14;19.60;99.90
7972;DHT22;4031;49.758;6.120;2023-08-30T11:48:40;19.60;99.90
7972;DHT22;4031;49.758;6.120;2023-08-30T11:51:07;19.50;99.90
7972;DHT22;4031;49.758;6.120;2023-08-30T11:53:34;19.40;99.90
7972;DHT22;4031;49.758;6.120;2023-08-30T11:56:00;19.40;99.90
7972;DHT22;4031;49.758;6.120;2023-08-30T11:58:26;19.50;99.90
7972;DHT22;4031;49.758;6.120;2023-08-30T12:00:53;19.60;99.90
7972;DHT22;4031;49.758;6.120;2023-08-30T12:03:22;19.90;99.90
7972;DHT22;4031;49.758;6.120;2023-08-30T12:05:49;20.30;99.90
7972;DHT22;4031;49.758;6.120;2023-08-30T12:08:27;20.40;99.90
7972;DHT22;4031;49.758;6.120;2023-08-30T12:10:54;20.70;99.90
7972;DHT22;4031;49.758;6.120;2023-08-30T12:13:30;21.00;99.90
7972;DHT22;4031;49.758;6.120;2023-08-30T12:15:59;20.90;99.90
7972;DHT22;4031;49.758;6.120;2023-08-30T12:18:26;20.30;99.90
7972;DHT22;4031;49.758;6.120;2023-08-30T12:20:55;19.90;99.90
7972;DHT22;4031;49.758;6.120;2023-08-30T12:23:26;19.20;99.90
7972;DHT22;4031;49.758;6.120;2023-08-30T12:26:03;19.10;99.90
7972;DHT22;4031;49.758;6.120;2023-08-30T12:28:31;19.50;99.90
7972;DHT22;4031;49.758;6.120;2023-08-30T12:30:58;20.10;99.90
7972;DHT22;4031;49.758;6.120;2023-08-30T12:33:24;20.20;99.90
7972;DHT22;4031;49.758;6.120;2023-08-30T12:35:54;19.90;99.90
7972;DHT22;4031;49.758;6.120;2023-08-30T12:38:21;19.60;99.90
7972;DHT22;4031;49.758;6.120;2023-08-30T12:40:48;19.30;99.90
7972;DHT22;4031;49.758;6.120;2023-08-30T12:43:15;19.10;99.90
7972;DHT22;4031;49.758;6.120;2023-08-30T12:45:42;19.20;99.90
7972;DHT22;4031;49.758;6.120;2023-08-30T12:48:10;19.20;99.90
7972;DHT22;4031;49.758;6.120;2023-08-30T12:50:37;19.30;99.90
7972;DHT22;4031;49.758;6.120;2023-08-30T12:53:04;19.20;99.90
7972;DHT22;4031;49.758;6.120;2023-08-30T12:55:30;19.20;99.90
7972;DHT22;4031;49.758;6.120;2023-08-30T12:57:56;19.20;99.90
7972;DHT22;4031;49.758;6.120;2023-08-30T13:00:23;19.00;99.90
7972;DHT22;4031;49.758;6.120;2023-08-30T13:02:49;18.70;99.90
7972;DHT22;4031;49.758;6.120;2023-08-30T13:05:15;18.30;99.90
7972;DHT22;4031;49.758;6.120;2023-08-30T13:07:40;18.10;99.90
7972;DHT22;4031;49.758;6.120;2023-08-30T13:10:07;17.90;99.90
7972;DHT22;4031;49.758;6.120;2023-08-30T13:12:33;17.70;99.90
7972;DHT22;4031;49.758;6.120;2023-08-30T13:14:59;17.50;99.90
7972;DHT22;4031;49.758;6.120;2023-08-30T13:17:25;17.20;99.90
7972;DHT22;4031;49.758;6.120;2023-08-30T13:19:50;17.00;99.90
7972;DHT22;4031;49.758;6.120;2023-08-30T13:22:16;16.80;99.90
7972;DHT22;4031;49.758;6.120;2023-08-30T13:24:43;16.80;99.90
7972;DHT22;4031;49.758;6.120;2023-08-30T13:27:09;16.70;99.90
7972;DHT22;4031;49.758;6.120;2023-08-30T13:29:36;16.70;99.90
7972;DHT22;4031;49.758;6.120;2023-08-30T13:32:02;16.30;99.90
7972;DHT22;4031;49.758;6.120;2023-08-30T13:34:28;15.90;99.90
7972;DHT22;4031;49.758;6.120;2023-08-30T13:36:54;15.60;99.90
7972;DHT22;4031;49.758;6.120;2023-08-30T13:39:20;15.40;99.90
7972;DHT22;4031;49.758;6.120;2023-08-30T13:41:46;15.50;99.90
7972;DHT22;4031;49.758;6.120;2023-08-30T13:44:13;15.70;99.90
7972;DHT22;4031;49.758;6.120;2023-08-30T13:46:39;15.90;99.90
7972;DHT22;4031;49.758;6.120;2023-08-30T13:49:05;16.20;99.90
7972;DHT22;4031;49.758;6.120;2023-08-30T13:51:31;16.60;99.90
7972;DHT22;4031;49.758;6.120;2023-08-30T13:53:57;17.20;99.90
7972;DHT22;4031;49.758;6.120;2023-08-30T13:56:23;17.60;99.90
7972;DHT22;4031;49.758;6.120;2023-08-30T13:58:49;17.90;99.90
7972;DHT22;4031;49.758;6.120;2023-08-30T14:01:16;17.90;99.90
7972;DHT22;4031;49.758;6.120;2023-08-30T14:03:45;17.70;99.90
7972;DHT22;4031;49.758;6.120;2023-08-30T14:06:10;17.50;99.90
7972;DHT22;4031;49.758;6.120;2023-08-30T14:08:37;17.20;99.90
7972;DHT22;4031;49.758;6.120;2023-08-30T14:11:02;17.20;99.90
7972;DHT22;4031;49.758;6.120;2023-08-30T14:13:29;17.30;99.90
7972;DHT22;4031;49.758;6.120;2023-08-30T14:15:59;17.80;99.90
7972;DHT22;4031;49.758;6.120;2023-08-30T14:18:26;18.00;99.90
7972;DHT22;4031;49.758;6.120;2023-08-30T14:20:58;18.10;99.90
7972;DHT22;4031;49.758;6.120;2023-08-30T14:23:28;18.00;99.90
7972;DHT22;4031;49.758;6.120;2023-08-30T14:26:03;18.00;99.90
7972;DHT22;4031;49.758;6.120;2023-08-30T14:28:39;18.10;99.90
7972;DHT22;4031;49.758;6.120;2023-08-30T14:31:09;18.10;99.90
7972;DHT22;4031;49.758;6.120;2023-08-30T14:33:36;18.20;99.90
7972;DHT22;4031;49.758;6.120;2023-08-30T14:36:03;18.30;99.90
7972;DHT22;4031;49.758;6.120;2023-08-30T14:38:29;18.40;99.90
7972;DHT22;4031;49.758;6.120;2023-08-30T14:40:58;18.30;99.90
7972;DHT22;4031;49.758;6.120;2023-08-30T14:43:25;18.30;99.90
7972;DHT22;4031;49.758;6.120;2023-08-30T14:45:50;18.20;99.90
7972;DHT22;4031;49.758;6.120;2023-08-30T14:48:16;18.00;99.90
7972;DHT22;4031;49.758;6.120;2023-08-30T14:50:42;17.80;99.90
7972;DHT22;4031;49.758;6.120;2023-08-30T14:53:08;17.70;99.90
7972;DHT22;4031;49.758;6.120;2023-08-30T14:55:34;17.40;99.90
7972;DHT22;4031;49.758;6.120;2023-08-30T14:57:59;17.20;99.90
7972;DHT22;4031;49.758;6.120;2023-08-30T15:00:25;16.90;99.90
7972;DHT22;4031;49.758;6.120;2023-08-30T15:02:51;16.70;99.90
7972;DHT22;4031;49.758;6.120;2023-08-30T15:05:17;16.30;99.90
7972;DHT22;4031;49.758;6.120;2023-08-30T15:07:43;16.10;99.90
7972;DHT22;4031;49.758;6.120;2023-08-30T15:10:09;15.90;99.90
7972;DHT22;4031;49.758;6.120;2023-08-30T15:12:35;15.80;99.90
7972;DHT22;4031;49.758;6.120;2023-08-30T15:15:02;15.60;99.90
7972;DHT22;4031;49.758;6.120;2023-08-30T15:17:28;15.40;99.90
7972;DHT22;4031;49.758;6.120;2023-08-30T15:19:54;15.30;99.90
7972;DHT22;4031;49.758;6.120;2023-08-30T15:22:20;15.30;99.90
7972;DHT22;4031;49.758;6.120;2023-08-30T15:24:46;15.40;99.90
7972;DHT22;4031;49.758;6.120;2023-08-30T15:27:11;15.60;99.90
7972;DHT22;4031;49.758;6.120;2023-08-30T15:29:37;15.80;99.90
7972;DHT22;4031;49.758;6.120;2023-08-30T15:32:03;15.90;99.90
7972;DHT22;4031;49.758;6.120;2023-08-30T15:34:29;16.10;99.90
7972;DHT22;4031;49.758;6.120;2023-08-30T15:36:54;16.30;99.90
7972;DHT22;4031;49.758;6.120;2023-08-30T15:39:20;16.50;99.90
7972;DHT22;4031;49.758;6.120;2023-08-30T15:41:46;16.70;99.90
7972;DHT22;4031;49.758;6.120;2023-08-30T15:44:13;17.30;99.90
7972;DHT22;4031;49.758;6.120;2023-08-30T15:46:39;18.10;99.90
7972;DHT22;4031;49.758;6.120;2023-08-30T15:49:05;18.80;99.90
7972;DHT22;4031;49.758;6.120;2023-08-30T15:51:31;19.10;99.90
7972;DHT22;4031;49.758;6.120;2023-08-30T15:53:57;19.00;99.90
7972;DHT22;4031;49.758;6.120;2023-08-30T15:56:23;18.60;99.90
7972;DHT22;4031;49.758;6.120;2023-08-30T15:58:49;18.30;99.90
7972;DHT22;4031;49.758;6.120;2023-08-30T16:01:15;17.90;99.90
7972;DHT22;4031;49.758;6.120;2023-08-30T16:03:41;17.50;99.90
7972;DHT22;4031;49.758;6.120;2023-08-30T16:06:07;17.20;99.90
7972;DHT22;4031;49.758;6.120;2023-08-30T16:08:33;16.90;99.90